Observations for BLACKPOOL AIRPORT, United Kingdom (EGNH)

EGNH 181950Z 20018KT 9999 SCT042 17/14 Q1004
EGNH 181820Z 20019KT 9999 SCT023 18/15 Q1003
EGNH 181750Z 20017KT 9999 SCT018 BKN043 18/15 Q1004 
EGNH 181720Z 20021KT 9999 SCT023 18/14 Q1004
EGNH 181650Z 21024KT 9999 SCT023 18/14 Q1003
EGNH 181620Z 21022KT 9999 FEW016 18/15 Q1003
EGNH 181550Z 21015KT 9999 FEW022 19/15 Q1003
EGNH 181520Z 21014KT 9999 FEW016 19/15 Q1003
EGNH 181450Z 21016KT 9999 FEW012 19/16 Q1003
EGNH 181420Z 21018KT 9999 FEW015 19/16 Q1003
EGNH 181350Z 20019KT 9999 FEW024 19/16 Q1003
EGNH 181320Z 21019KT 9999 SCT040 18/15 Q1003
EGNH 181250Z 21021KT 9999 SCT022 17/15 Q1003
EGNH 181220Z 22023KT 9999 FEW029 18/15 Q1002
EGNH 181150Z 23028KT 9999 FEW030 18/14 Q1001
EGNH 181120Z 24031KT 9999 FEW019 17/14 Q1000
EGNH 181020Z 23027G37KT 9999 FEW007 17/15 Q1000 
EGNH 180950Z 23024KT 9999 FEW007 BKN025 17/16 Q0999 
EGNH 180920Z 23025KT 9999 FEW015 BKN030 17/16 Q0998 
EGNH 180850Z 22024KT 8000 FEW005 BKN007 17/16 Q0998 
EGNH 180820Z 22022KT 8000 BKN009 17/16 Q0997
EGNH 180750Z 22023KT 2500 -RADZ BKN003 16/16 Q0996  
EGNH 180720Z 22024KT 9999 BKN007 17/16 Q0996
EGNH 180650Z 19017KT 6000 -RA SCT004 BKN010 17/16 Q0995 
EGNH 180620Z 17019KT 3000 -RA BR FEW001 BKN004 17/16 Q0994  
EGNH 180550Z 15022KT 9000 -RA FEW005 SCT009 BKN018 18/16 Q0994  
EGNH 180520Z 15019KT 9999 SCT021 BKN030 18/15 Q0994